AAL3352 KNYL-KPHX
Flight info
| Callsign | AAL3352 |
|---|---|
| Flight time | 0h 38m |
| Altitude | 23000 |
| Route | BZA HOGGZ HYDRR1 |
| Aircraft | E190/M-SDE3GILORVW/S |
Departure
| Time | 2026-05-04 00:10 |
|---|---|
| Airport | Yuma International Airport / Marine Corps Air Station Yuma (KNYL) |
Arrival
| Time | 2026-05-04 00:48 |
|---|---|
| Airport | Phoenix Sky Harbor International Airport (KPHX) |
| Time | Latitude | Longitude | Altitude | Speed | Heading |
|---|---|---|---|---|---|
| 2026-05-03 23:34 | 32.66785 | -114.59912 | 206 ft | 0 kts | 34° |
| 2026-05-03 23:58 | 32.66784 | -114.59913 | 206 ft | 1 kts | 34° |
| 2026-05-03 23:58 | 32.66772 | -114.59923 | 206 ft | 2 kts | 34° |
| 2026-05-03 23:59 | 32.66761 | -114.59932 | 205 ft | 0 kts | 34° |
| 2026-05-03 23:59 | 32.66750 | -114.59938 | 205 ft | 2 kts | 359° |
| 2026-05-03 23:59 | 32.66737 | -114.59933 | 204 ft | 2 kts | 322° |
| 2026-05-03 23:59 | 32.66729 | -114.59920 | 205 ft | 2 kts | 281° |
| 2026-05-04 00:00 | 32.66728 | -114.59912 | 205 ft | 1 kts | 264° |
| 2026-05-04 00:00 | 32.66729 | -114.59903 | 205 ft | 1 kts | 267° |
| 2026-05-04 00:00 | 32.66730 | -114.59893 | 205 ft | 1 kts | 267° |
| 2026-05-04 00:00 | 32.66730 | -114.59885 | 205 ft | 0 kts | 267° |
| 2026-05-04 00:04 | 32.66730 | -114.59907 | 205 ft | 5 kts | 266° |
| 2026-05-04 00:04 | 32.66728 | -114.59974 | 204 ft | 10 kts | 268° |
| 2026-05-04 00:04 | 32.66727 | -114.60060 | 203 ft | 10 kts | 267° |
| 2026-05-04 00:05 | 32.66726 | -114.60138 | 202 ft | 9 kts | 268° |
| 2026-05-04 00:05 | 32.66726 | -114.60151 | 202 ft | 9 kts | 268° |
| 2026-05-04 00:05 | 32.66725 | -114.60214 | 202 ft | 9 kts | 267° |
| 2026-05-04 00:05 | 32.66724 | -114.60287 | 201 ft | 8 kts | 268° |
| 2026-05-04 00:06 | 32.66723 | -114.60352 | 201 ft | 7 kts | 268° |
| 2026-05-04 00:06 | 32.66722 | -114.60414 | 201 ft | 7 kts | 269° |
| 2026-05-04 00:06 | 32.66722 | -114.60483 | 201 ft | 8 kts | 268° |
| 2026-05-04 00:06 | 32.66707 | -114.60550 | 200 ft | 9 kts | 219° |
| 2026-05-04 00:07 | 32.66677 | -114.60558 | 200 ft | 0 kts | 180° |
| 2026-05-04 00:07 | 32.66676 | -114.60558 | 200 ft | 0 kts | 180° |
| 2026-05-04 00:07 | 32.66653 | -114.60558 | 200 ft | 6 kts | 179° |
| 2026-05-04 00:08 | 32.66606 | -114.60545 | 200 ft | 8 kts | 129° |
| 2026-05-04 00:08 | 32.66591 | -114.60471 | 200 ft | 9 kts | 90° |
| 2026-05-04 00:08 | 32.66591 | -114.60402 | 200 ft | 12 kts | 90° |
| 2026-05-04 00:08 | 32.66597 | -114.59931 | 204 ft | 104 kts | 89° |
| 2026-05-04 00:09 | 32.66610 | -114.58802 | 335 ft | 162 kts | 102° |
| 2026-05-04 00:09 | 32.66587 | -114.57543 | 625 ft | 153 kts | 103° |
| 2026-05-04 00:09 | 32.66792 | -114.56271 | 604 ft | 178 kts | 67° |
| 2026-05-04 00:09 | 32.67820 | -114.55251 | 644 ft | 228 kts | 21° |
| 2026-05-04 00:10 | 32.69466 | -114.55170 | 1094 ft | 249 kts | 348° |
| 2026-05-04 00:10 | 32.71111 | -114.55776 | 1591 ft | 254 kts | 333° |
| 2026-05-04 00:10 | 32.72674 | -114.56773 | 2061 ft | 252 kts | 325° |
| 2026-05-04 00:10 | 32.74300 | -114.57510 | 2527 ft | 262 kts | 357° |
| 2026-05-04 00:11 | 32.76012 | -114.56969 | 3045 ft | 256 kts | 38° |
| 2026-05-04 00:11 | 32.77072 | -114.55342 | 3567 ft | 249 kts | 77° |
| 2026-05-04 00:11 | 32.77351 | -114.53342 | 4077 ft | 245 kts | 90° |
| 2026-05-04 00:11 | 32.77465 | -114.51339 | 4533 ft | 248 kts | 91° |
| 2026-05-04 00:12 | 32.77525 | -114.49295 | 4993 ft | 251 kts | 92° |
| 2026-05-04 00:12 | 32.77553 | -114.47141 | 5493 ft | 272 kts | 92° |
| 2026-05-04 00:12 | 32.77567 | -114.44888 | 5986 ft | 284 kts | 93° |
| 2026-05-04 00:12 | 32.77573 | -114.42548 | 6449 ft | 288 kts | 94° |
| 2026-05-04 00:13 | 32.77573 | -114.40176 | 6938 ft | 290 kts | 93° |
| 2026-05-04 00:13 | 32.77571 | -114.37851 | 7376 ft | 292 kts | 94° |
| 2026-05-04 00:13 | 32.77568 | -114.35482 | 7852 ft | 292 kts | 93° |
| 2026-05-04 00:13 | 32.77563 | -114.33092 | 8349 ft | 294 kts | 94° |
| 2026-05-04 00:14 | 32.77557 | -114.30628 | 8610 ft | 298 kts | 94° |
| 2026-05-04 00:14 | 32.77552 | -114.28188 | 8797 ft | 296 kts | 94° |
| 2026-05-04 00:14 | 32.77546 | -114.25791 | 9435 ft | 299 kts | 95° |
| 2026-05-04 00:14 | 32.77538 | -114.23338 | 10055 ft | 304 kts | 94° |
| 2026-05-04 00:15 | 32.77531 | -114.20826 | 10677 ft | 311 kts | 94° |
| 2026-05-04 00:15 | 32.77523 | -114.18295 | 11303 ft | 318 kts | 94° |
| 2026-05-04 00:15 | 32.77513 | -114.15680 | 11925 ft | 327 kts | 94° |
| 2026-05-04 00:15 | 32.77503 | -114.12905 | 12582 ft | 341 kts | 94° |
| 2026-05-04 00:16 | 32.77491 | -114.10071 | 13214 ft | 354 kts | 94° |
| 2026-05-04 00:16 | 32.77494 | -114.07077 | 13841 ft | 369 kts | 90° |
| 2026-05-04 00:16 | 32.77793 | -114.04017 | 14496 ft | 379 kts | 85° |
| 2026-05-04 00:16 | 32.78149 | -114.00856 | 15129 ft | 387 kts | 85° |
| 2026-05-04 00:17 | 32.78504 | -113.97661 | 15756 ft | 394 kts | 85° |
| 2026-05-04 00:17 | 32.78857 | -113.94461 | 16391 ft | 400 kts | 85° |
| 2026-05-04 00:17 | 32.79222 | -113.91137 | 17046 ft | 405 kts | 84° |
| 2026-05-04 00:17 | 32.79590 | -113.87788 | 17697 ft | 411 kts | 84° |
| 2026-05-04 00:18 | 32.79955 | -113.84440 | 18334 ft | 418 kts | 84° |
| 2026-05-04 00:18 | 32.80334 | -113.80962 | 18777 ft | 427 kts | 84° |
| 2026-05-04 00:18 | 32.80711 | -113.77492 | 18665 ft | 423 kts | 84° |
| 2026-05-04 00:18 | 32.81082 | -113.74066 | 18661 ft | 421 kts | 84° |
| 2026-05-04 00:19 | 32.81515 | -113.70660 | 18646 ft | 424 kts | 76° |
| 2026-05-04 00:19 | 32.82700 | -113.67490 | 18346 ft | 421 kts | 53° |
| 2026-05-04 00:19 | 32.84523 | -113.64941 | 18042 ft | 415 kts | 45° |
| 2026-05-04 00:19 | 32.86369 | -113.62489 | 17755 ft | 409 kts | 46° |
| 2026-05-04 00:20 | 32.88227 | -113.60001 | 17459 ft | 408 kts | 46° |
| 2026-05-04 00:20 | 32.90055 | -113.57542 | 17079 ft | 397 kts | 46° |
| 2026-05-04 00:20 | 32.91734 | -113.55284 | 16712 ft | 385 kts | 47° |
| 2026-05-04 00:20 | 32.93439 | -113.52986 | 16337 ft | 374 kts | 46° |
| 2026-05-04 00:21 | 32.95108 | -113.50738 | 15965 ft | 366 kts | 47° |
| 2026-05-04 00:21 | 32.96793 | -113.48465 | 15592 ft | 363 kts | 47° |
| 2026-05-04 00:21 | 32.98461 | -113.46213 | 15223 ft | 365 kts | 47° |
| 2026-05-04 00:21 | 33.00114 | -113.43980 | 14887 ft | 362 kts | 48° |
| 2026-05-04 00:22 | 33.01754 | -113.41763 | 14614 ft | 357 kts | 48° |
| 2026-05-04 00:22 | 33.03378 | -113.39566 | 14340 ft | 356 kts | 48° |
| 2026-05-04 00:22 | 33.05019 | -113.37347 | 14072 ft | 353 kts | 49° |
| 2026-05-04 00:22 | 33.06639 | -113.35158 | 13811 ft | 353 kts | 49° |
| 2026-05-04 00:23 | 33.08211 | -113.33034 | 13551 ft | 348 kts | 49° |
| 2026-05-04 00:23 | 33.09811 | -113.30872 | 13278 ft | 348 kts | 50° |
| 2026-05-04 00:23 | 33.11345 | -113.28796 | 13013 ft | 344 kts | 50° |
| 2026-05-04 00:23 | 33.12894 | -113.26699 | 12751 ft | 343 kts | 50° |
| 2026-05-04 00:24 | 33.14442 | -113.24605 | 12475 ft | 341 kts | 50° |
| 2026-05-04 00:24 | 33.15970 | -113.22533 | 12208 ft | 338 kts | 50° |
| 2026-05-04 00:24 | 33.17497 | -113.20464 | 11928 ft | 337 kts | 51° |
| 2026-05-04 00:24 | 33.18982 | -113.18449 | 11667 ft | 333 kts | 50° |
| 2026-05-04 00:25 | 33.20483 | -113.16412 | 11398 ft | 333 kts | 51° |
| 2026-05-04 00:25 | 33.21956 | -113.14413 | 11116 ft | 323 kts | 51° |
| 2026-05-04 00:25 | 33.23360 | -113.12507 | 10853 ft | 312 kts | 51° |
| 2026-05-04 00:25 | 33.24766 | -113.10595 | 10587 ft | 306 kts | 51° |
| 2026-05-04 00:26 | 33.26150 | -113.08711 | 10337 ft | 307 kts | 52° |
| 2026-05-04 00:26 | 33.27210 | -113.06531 | 10095 ft | 297 kts | 81° |
| 2026-05-04 00:26 | 33.27438 | -113.04135 | 9882 ft | 292 kts | 91° |
| 2026-05-04 00:26 | 33.27529 | -113.01834 | 9645 ft | 291 kts | 91° |
| 2026-05-04 00:27 | 33.27605 | -112.99477 | 9447 ft | 288 kts | 92° |
| 2026-05-04 00:27 | 33.27671 | -112.97136 | 9244 ft | 287 kts | 92° |
| 2026-05-04 00:27 | 33.27733 | -112.94795 | 9047 ft | 288 kts | 92° |
| 2026-05-04 00:27 | 33.27792 | -112.92458 | 8847 ft | 286 kts | 92° |
| 2026-05-04 00:28 | 33.27850 | -112.90162 | 8643 ft | 286 kts | 92° |
| 2026-05-04 00:28 | 33.27908 | -112.87824 | 8431 ft | 285 kts | 93° |
| 2026-05-04 00:28 | 33.27963 | -112.85557 | 8230 ft | 284 kts | 93° |
| 2026-05-04 00:28 | 33.28015 | -112.83381 | 8041 ft | 282 kts | 92° |
| 2026-05-04 00:29 | 33.28151 | -112.80969 | 7830 ft | 284 kts | 88° |
| 2026-05-04 00:29 | 33.28375 | -112.78653 | 7631 ft | 283 kts | 88° |
| 2026-05-04 00:29 | 33.28595 | -112.76332 | 7427 ft | 283 kts | 88° |
| 2026-05-04 00:29 | 33.28814 | -112.74027 | 7336 ft | 281 kts | 88° |
| 2026-05-04 00:30 | 33.29027 | -112.71745 | 7271 ft | 283 kts | 88° |
| 2026-05-04 00:30 | 33.29240 | -112.69489 | 7216 ft | 281 kts | 88° |
| 2026-05-04 00:30 | 33.29457 | -112.67182 | 7156 ft | 281 kts | 88° |
| 2026-05-04 00:30 | 33.29671 | -112.64889 | 7094 ft | 282 kts | 88° |
| 2026-05-04 00:31 | 33.29886 | -112.62596 | 7046 ft | 282 kts | 88° |
| 2026-05-04 00:31 | 33.30099 | -112.60304 | 6981 ft | 281 kts | 88° |
| 2026-05-04 00:31 | 33.30314 | -112.57990 | 6973 ft | 281 kts | 88° |
| 2026-05-04 00:31 | 33.30528 | -112.55684 | 6981 ft | 282 kts | 88° |
| 2026-05-04 00:32 | 33.30744 | -112.53353 | 6982 ft | 282 kts | 88° |
| 2026-05-04 00:32 | 33.30958 | -112.51041 | 6984 ft | 284 kts | 88° |
| 2026-05-04 00:32 | 33.31171 | -112.48723 | 6985 ft | 283 kts | 88° |
| 2026-05-04 00:32 | 33.31382 | -112.46439 | 6988 ft | 283 kts | 88° |
| 2026-05-04 00:33 | 33.31593 | -112.44133 | 6999 ft | 283 kts | 88° |
| 2026-05-04 00:33 | 33.32010 | -112.39580 | 7017 ft | 284 kts | 87° |
| 2026-05-04 00:33 | 33.32218 | -112.37306 | 7017 ft | 283 kts | 88° |
| 2026-05-04 00:34 | 33.32429 | -112.34988 | 7023 ft | 284 kts | 88° |
| 2026-05-04 00:34 | 33.32637 | -112.32720 | 7025 ft | 282 kts | 89° |
| 2026-05-04 00:34 | 33.32849 | -112.30390 | 7033 ft | 285 kts | 88° |
| 2026-05-04 00:34 | 33.33057 | -112.28110 | 7037 ft | 284 kts | 88° |
| 2026-05-04 00:35 | 33.33264 | -112.25836 | 7041 ft | 286 kts | 88° |
| 2026-05-04 00:35 | 33.33472 | -112.23547 | 7038 ft | 285 kts | 88° |
| 2026-05-04 00:35 | 33.33677 | -112.21283 | 7031 ft | 283 kts | 88° |
| 2026-05-04 00:35 | 33.33884 | -112.18987 | 7027 ft | 284 kts | 88° |
| 2026-05-04 00:36 | 33.34091 | -112.16705 | 7022 ft | 286 kts | 89° |
| 2026-05-04 00:36 | 33.34300 | -112.14378 | 7016 ft | 285 kts | 88° |
| 2026-05-04 00:36 | 33.34511 | -112.12028 | 7014 ft | 285 kts | 88° |
| 2026-05-04 00:36 | 33.34716 | -112.09717 | 7005 ft | 284 kts | 90° |
| 2026-05-04 00:37 | 33.34736 | -112.07448 | 6750 ft | 285 kts | 95° |
| 2026-05-04 00:37 | 33.34708 | -112.05279 | 6424 ft | 282 kts | 95° |
| 2026-05-04 00:37 | 33.34679 | -112.02970 | 6082 ft | 281 kts | 95° |
| 2026-05-04 00:37 | 33.34649 | -112.00642 | 5735 ft | 279 kts | 95° |
| 2026-05-04 00:38 | 33.34621 | -111.98453 | 5451 ft | 276 kts | 95° |
| 2026-05-04 00:38 | 33.34591 | -111.96157 | 5198 ft | 277 kts | 96° |
| 2026-05-04 00:38 | 33.34562 | -111.94027 | 4969 ft | 277 kts | 96° |
| 2026-05-04 00:38 | 33.34531 | -111.92023 | 4715 ft | 267 kts | 96° |
| 2026-05-04 00:39 | 33.34486 | -111.89827 | 4413 ft | 252 kts | 96° |
| 2026-05-04 00:39 | 33.34442 | -111.87918 | 4226 ft | 240 kts | 97° |
| 2026-05-04 00:39 | 33.34391 | -111.85976 | 4112 ft | 224 kts | 98° |
| 2026-05-04 00:39 | 33.34343 | -111.84248 | 4087 ft | 218 kts | 98° |
| 2026-05-04 00:40 | 33.34283 | -111.82513 | 4092 ft | 222 kts | 98° |
| 2026-05-04 00:40 | 33.34211 | -111.80786 | 4103 ft | 223 kts | 98° |
| 2026-05-04 00:40 | 33.34127 | -111.79063 | 4104 ft | 224 kts | 98° |
| 2026-05-04 00:40 | 33.34029 | -111.77302 | 4104 ft | 224 kts | 100° |
| 2026-05-04 00:41 | 33.33928 | -111.75574 | 4099 ft | 222 kts | 97° |
| 2026-05-04 00:41 | 33.35274 | -111.72914 | 4107 ft | 244 kts | 26° |
| 2026-05-04 00:41 | 33.36914 | -111.72557 | 4126 ft | 240 kts | 0° |
| 2026-05-04 00:42 | 33.38532 | -111.72524 | 4109 ft | 242 kts | 360° |
| 2026-05-04 00:42 | 33.40142 | -111.72493 | 4134 ft | 237 kts | 360° |
| 2026-05-04 00:42 | 33.41748 | -111.72462 | 4128 ft | 240 kts | 358° |
| 2026-05-04 00:42 | 33.43232 | -111.72835 | 4115 ft | 233 kts | 335° |
| 2026-05-04 00:43 | 33.44693 | -111.73557 | 4116 ft | 235 kts | 329° |
| 2026-05-04 00:43 | 33.45837 | -111.74753 | 4121 ft | 227 kts | 306° |
| 2026-05-04 00:43 | 33.46824 | -111.76121 | 4117 ft | 228 kts | 304° |
| 2026-05-04 00:43 | 33.47459 | -111.77721 | 4024 ft | 216 kts | 274° |
| 2026-05-04 00:44 | 33.47304 | -111.79356 | 3813 ft | 203 kts | 247° |
| 2026-05-04 00:44 | 33.46841 | -111.80820 | 3735 ft | 186 kts | 246° |
| 2026-05-04 00:44 | 33.46486 | -111.82173 | 3864 ft | 181 kts | 249° |
| 2026-05-04 00:44 | 33.46204 | -111.83478 | 3880 ft | 163 kts | 255° |
| 2026-05-04 00:45 | 33.45838 | -111.84678 | 3885 ft | 154 kts | 234° |
| 2026-05-04 00:45 | 33.45241 | -111.85682 | 3799 ft | 156 kts | 230° |
| 2026-05-04 00:45 | 33.44681 | -111.86710 | 3623 ft | 154 kts | 238° |
| 2026-05-04 00:45 | 33.44347 | -111.87817 | 3626 ft | 148 kts | 250° |
| 2026-05-04 00:46 | 33.44225 | -111.89003 | 3562 ft | 152 kts | 262° |
| 2026-05-04 00:46 | 33.44198 | -111.90191 | 3483 ft | 153 kts | 261° |
| 2026-05-04 00:46 | 33.44187 | -111.91400 | 3290 ft | 155 kts | 264° |
| 2026-05-04 00:46 | 33.44171 | -111.92630 | 2981 ft | 158 kts | 261° |
| 2026-05-04 00:47 | 33.44116 | -111.93829 | 2562 ft | 159 kts | 262° |
| 2026-05-04 00:47 | 33.44081 | -111.95052 | 2284 ft | 154 kts | 264° |
| 2026-05-04 00:47 | 33.44098 | -111.96257 | 1958 ft | 157 kts | 266° |
| 2026-05-04 00:47 | 33.44081 | -111.97446 | 1552 ft | 150 kts | 265° |
| 2026-05-04 00:48 | 33.44085 | -111.98603 | 1263 ft | 144 kts | 266° |
| 2026-05-04 00:48 | 33.44084 | -111.99644 | 1142 ft | 125 kts | 266° |
| 2026-05-04 00:48 | 33.44080 | -112.00485 | 1138 ft | 75 kts | 271° |
| 2026-05-04 00:48 | 33.44081 | -112.00948 | 1136 ft | 40 kts | 269° |
| 2026-05-04 00:49 | 33.44011 | -112.01090 | 1135 ft | 15 kts | 180° |
| 2026-05-04 00:49 | 33.43975 | -112.01041 | 1135 ft | 7 kts | 97° |
| 2026-05-04 00:49 | 33.43975 | -112.00979 | 1136 ft | 9 kts | 90° |
| 2026-05-04 00:49 | 33.43975 | -112.00890 | 1136 ft | 15 kts | 90° |
| 2026-05-04 00:50 | 33.43973 | -112.00754 | 1137 ft | 21 kts | 90° |
| 2026-05-04 00:50 | 33.43975 | -112.00577 | 1137 ft | 22 kts | 91° |
| 2026-05-04 00:50 | 33.43973 | -112.00365 | 1138 ft | 22 kts | 90° |
| 2026-05-04 00:50 | 33.43975 | -112.00185 | 1138 ft | 22 kts | 91° |
| 2026-05-04 00:51 | 33.43973 | -112.00022 | 1139 ft | 21 kts | 90° |
| 2026-05-04 00:51 | 33.43965 | -111.99856 | 1139 ft | 18 kts | 126° |
| 2026-05-04 00:51 | 33.43868 | -111.99831 | 1138 ft | 14 kts | 178° |
| 2026-05-04 00:51 | 33.43764 | -111.99831 | 1137 ft | 15 kts | 180° |
| 2026-05-04 00:52 | 33.43692 | -111.99833 | 1137 ft | 5 kts | 210° |
| 2026-05-04 00:52 | 33.43685 | -111.99867 | 1136 ft | 3 kts | 270° |
| 2026-05-04 00:52 | 33.43685 | -111.99881 | 1136 ft | 0 kts | 269° |